Kornett — CQEJ — position and weather

sailwx.info

Track history (hours):
 
Tides and Currents Weather Stations Pressure Air Temp Water Temp Dewpoint Dewpoint Depression Visibility Wind Speed Wind Dir Waves Ship Positions

Kornett

Last reported at 2017-Dec-18 03:04 UTC. Time now 2017-Dec-18 05:20 UTC.
Position N 37°14' W 001°03'.

Length 135 m; draft 8.9 m.

Type: Ship (hazmat cat A). MMSI: 255805686.

Date/timePositionNaut miles runAvg speedWind from/ knotsBaromVisibWave heightAir tempDewpointWater temp
2017-Dec-18 03:04N 37°14' W 001°03'116.2
2017-Dec-18 03:00N 37°15' W 001°02'816.1
2017-Dec-18 02:30N 37°21' W 000°55'816.2
2017-Dec-18 02:00N 37°26' W 000°48'816.2
2017-Dec-18 01:30N 37°31' W 000°40'816.1
2017-Dec-18 01:00N 37°37' W 000°32'816.1
2017-Dec-18 00:30N 37°44' W 000°27'816.0
2017-Dec-18 00:00N 37°50' W 000°21'915.7
2017-Dec-17 23:26N 37°57' W 000°14'200 6.6
2017-Dec-16 17:14N 40°58' E 001°37'311.0
2017-Dec-16 17:00N 40°59' E 001°40'511.0
2017-Dec-16 16:30N 41°03' E 001°45'611.0
2017-Dec-16 16:00N 41°06' E 001°51'511.0
2017-Dec-16 15:30N 41°09' E 001°57'611.0
2017-Dec-16 15:00N 41°13' E 002°03'610.9
2017-Dec-16 14:26N 41°16' E 002°10'2 4.8
2017-Dec-16 13:56N 41°18' E 002°10'  
2017-Dec-12 20:09N 37°44' W 000°23'214.6
2017-Dec-12 20:00N 37°42' W 000°24'714.6
2017-Dec-12 19:30N 37°36' W 000°29'713.4
2017-Dec-12 19:00N 37°32' W 000°36'814.7
2017-Dec-12 18:30N 37°32' W 000°45'815.0
2017-Dec-12 17:59N 37°31' W 000°55'5 0.4
2017-Dec-12 05:05N 37°34' W 001°00'112.8
2017-Dec-12 04:58N 37°33' W 001°02'  
2017-Dec-09 14:47N 29°08' W 013°13'616.9
2017-Dec-09 14:26N 29°04' W 013°18'816.6
2017-Dec-09 13:56N 28°57' W 013°24'1116.6
2017-Dec-09 13:18N 28°49' W 013°31'716.7
2017-Dec-09 12:51N 28°43' W 013°37'616.5
2017-Dec-09 12:30N 28°39' W 013°41'10 1.6
2017-Dec-09 06:01N 28°30' W 013°47'1 9.4
2017-Dec-09 05:57N 28°31' W 013°46'510.1
2017-Dec-09 05:30N 28°35' W 013°44'3 3.0
2017-Dec-09 04:29N 28°37' W 013°41'1 1.4
2017-Dec-09 04:00N 28°37' W 013°41'1 1.4
2017-Dec-09 03:28N 28°38' W 013°40'1 1.4
2017-Dec-09 02:46N 28°38' W 013°39'0 1.3
2017-Dec-09 02:27N 28°38' W 013°39'1 1.3
2017-Dec-09 01:37N 28°38' W 013°37'0 1.4
2017-Dec-09 01:21N 28°38' W 013°37'1 1.4
2017-Dec-09 00:58N 28°39' W 013°36'1 1.4
2017-Dec-09 00:30N 28°39' W 013°36'1 1.4
2017-Dec-09 00:00N 28°39' W 013°35'1 1.2
2017-Dec-08 23:18N 28°39' W 013°34'2 6.2
2017-Dec-08 22:56N 28°41' W 013°34'717.2
2017-Dec-08 22:30N 28°49' W 013°34'10 4.9
2017-Dec-08 20:34N 28°58' W 013°32'0 0.1
2017-Dec-08 20:28N 28°58' W 013°32'0 0.0
2017-Dec-08 19:50N 28°58' W 013°32'0 0.0
2017-Dec-08 18:18N 28°58' W 013°32'0 0.0
2017-Dec-08 18:00N 28°58' W 013°32'0 0.1
2017-Dec-08 16:33N 28°58' W 013°32'5 1.2
2017-Dec-08 12:25N 28°54' W 013°28'4 1.4
2017-Dec-08 09:43N 28°52' W 013°24'1 1.3
2017-Dec-08 09:16N 28°52' W 013°24'1 1.2
2017-Dec-08 08:50N 28°52' W 013°23'2 2.8
2017-Dec-08 08:12N 28°51' W 013°24'515.4
2017-Dec-08 07:54N 28°47' W 013°28'916.6
2017-Dec-08 07:21N 28°40' W 013°34'3711.4
2017-Dec-08 04:05N 28°09' W 013°58'112.5
2017-Dec-08 04:00N 28°09' W 013°59'612.3
2017-Dec-08 03:30N 28°06' W 014°05'  
Track history (hours):
 
Tides and Currents Weather Stations Pressure Air Temp Water Temp Dewpoint Dewpoint Depression Visibility Wind Speed Wind Dir Waves Ship Positions

Kornett

Last reported at 2017-Dec-18 03:04 UTC. Time now 2017-Dec-18 05:20 UTC.
Position N 37°14' W 001°03'.

Length 135 m; draft 8.9 m.

Type: Ship (hazmat cat A). MMSI: 255805686.

Date/timePositionNaut miles runAvg speedWind from/ knotsBaromVisibWave heightAir tempDewpointWater temp
2017-Dec-18 03:04N 37°14' W 001°03'116.2
2017-Dec-18 03:00N 37°15' W 001°02'816.1
2017-Dec-18 02:30N 37°21' W 000°55'816.2
2017-Dec-18 02:00N 37°26' W 000°48'816.2
2017-Dec-18 01:30N 37°31' W 000°40'816.1
2017-Dec-18 01:00N 37°37' W 000°32'816.1
2017-Dec-18 00:30N 37°44' W 000°27'816.0
2017-Dec-18 00:00N 37°50' W 000°21'915.7
2017-Dec-17 23:26N 37°57' W 000°14'200 6.6
2017-Dec-16 17:14N 40°58' E 001°37'311.0
2017-Dec-16 17:00N 40°59' E 001°40'511.0
2017-Dec-16 16:30N 41°03' E 001°45'611.0
2017-Dec-16 16:00N 41°06' E 001°51'511.0
2017-Dec-16 15:30N 41°09' E 001°57'611.0
2017-Dec-16 15:00N 41°13' E 002°03'610.9
2017-Dec-16 14:26N 41°16' E 002°10'2 4.8
2017-Dec-16 13:56N 41°18' E 002°10'  
2017-Dec-12 20:09N 37°44' W 000°23'214.6
2017-Dec-12 20:00N 37°42' W 000°24'714.6
2017-Dec-12 19:30N 37°36' W 000°29'713.4
2017-Dec-12 19:00N 37°32' W 000°36'814.7
2017-Dec-12 18:30N 37°32' W 000°45'815.0
2017-Dec-12 17:59N 37°31' W 000°55'5 0.4
2017-Dec-12 05:05N 37°34' W 001°00'112.8
2017-Dec-12 04:58N 37°33' W 001°02'  
2017-Dec-09 14:47N 29°08' W 013°13'616.9
2017-Dec-09 14:26N 29°04' W 013°18'816.6
2017-Dec-09 13:56N 28°57' W 013°24'1116.6
2017-Dec-09 13:18N 28°49' W 013°31'716.7
2017-Dec-09 12:51N 28°43' W 013°37'616.5
2017-Dec-09 12:30N 28°39' W 013°41'10 1.6
2017-Dec-09 06:01N 28°30' W 013°47'1 9.4
2017-Dec-09 05:57N 28°31' W 013°46'510.1
2017-Dec-09 05:30N 28°35' W 013°44'3 3.0
2017-Dec-09 04:29N 28°37' W 013°41'1 1.4
2017-Dec-09 04:00N 28°37' W 013°41'1 1.4
2017-Dec-09 03:28N 28°38' W 013°40'1 1.4
2017-Dec-09 02:46N 28°38' W 013°39'0 1.3
2017-Dec-09 02:27N 28°38' W 013°39'1 1.3
2017-Dec-09 01:37N 28°38' W 013°37'0 1.4
2017-Dec-09 01:21N 28°38' W 013°37'1 1.4
2017-Dec-09 00:58N 28°39' W 013°36'1 1.4
2017-Dec-09 00:30N 28°39' W 013°36'1 1.4
2017-Dec-09 00:00N 28°39' W 013°35'1 1.2
2017-Dec-08 23:18N 28°39' W 013°34'2 6.2
2017-Dec-08 22:56N 28°41' W 013°34'717.2
2017-Dec-08 22:30N 28°49' W 013°34'10 4.9
2017-Dec-08 20:34N 28°58' W 013°32'0 0.1
2017-Dec-08 20:28N 28°58' W 013°32'0 0.0
2017-Dec-08 19:50N 28°58' W 013°32'0 0.0
2017-Dec-08 18:18N 28°58' W 013°32'0 0.0
2017-Dec-08 18:00N 28°58' W 013°32'0 0.1
2017-Dec-08 16:33N 28°58' W 013°32'5 1.2
2017-Dec-08 12:25N 28°54' W 013°28'4 1.4
2017-Dec-08 09:43N 28°52' W 013°24'1 1.3
2017-Dec-08 09:16N 28°52' W 013°24'1 1.2
2017-Dec-08 08:50N 28°52' W 013°23'2 2.8
2017-Dec-08 08:12N 28°51' W 013°24'515.4
2017-Dec-08 07:54N 28°47' W 013°28'916.6
2017-Dec-08 07:21N 28°40' W 013°34'3711.4
2017-Dec-08 04:05N 28°09' W 013°58'112.5
2017-Dec-08 04:00N 28°09' W 013°59'612.3
2017-Dec-08 03:30N 28°06' W 014°05'  

Dump ship's entire track history